»·PEaware :: FDX224 KPSP-KGCN

FDX224 :: KPSP-KGCN

FLIGHT INFORMATION

Flight Status: Arrived
Operator:
Federal Express
More flights by this operator :: More flights under this callsign
Pilot: Matteo S. (9898)
Aircraft: Unknown
(B77F)
More flights by this aircraft type
Origin: KPSP Palm Springs Intl
United States
Destination: KGCN Grand Canyon Natl Park
United States
More flights between these airports :: More routes between these airports
Route: +CATH1 PSP TNP EED PGS
File this flight plan on PilotEdge
Remarks:
Altitude:
(Current/Filed)
29,000ft
Speed:
(Current/Filed)
450kts
Departed: 13-Apr-16 09:35 AM
Arrived: 13-Apr-16 10:17 AM
Distance/Time
Traveled:
250nm/0:41
Distance/Time
To Go:
Arrived

Flight Plot

Page will automatically refresh every two minutes.


Map Options




Map Legend


Flown Route
Filed Route
Departure Airport
Arrival Airport
Navaid (VOR, NDB)
Fix

Horizontal Profiles

Position Reports

Time Latitude Longitude Heading Altitude Ground
Speed
13-Apr-16 09:02 33.825350 -116.509552 90 435ft 0kts
13-Apr-16 09:03 33.825350 -116.509552 90 435ft 0kts
13-Apr-16 09:04 33.825350 -116.509552 90 435ft 0kts
13-Apr-16 09:05 33.825350 -116.509552 90 435ft 0kts
13-Apr-16 09:06 33.825350 -116.509552 90 435ft 0kts
13-Apr-16 09:07 33.825350 -116.509552 90 435ft 0kts
13-Apr-16 09:08 33.825350 -116.509552 90 435ft 0kts
13-Apr-16 09:09 33.825350 -116.509552 90 435ft 0kts
13-Apr-16 09:10 33.825350 -116.509552 90 435ft 0kts
13-Apr-16 09:11 33.825350 -116.509552 90 435ft 0kts
13-Apr-16 09:12 33.825350 -116.509552 90 435ft 0kts
13-Apr-16 09:13 33.825350 -116.509552 90 435ft 0kts
13-Apr-16 09:14 33.825350 -116.509552 90 435ft 0kts
13-Apr-16 09:15 33.825350 -116.509552 90 435ft 0kts
13-Apr-16 09:16 33.825350 -116.509552 90 435ft 0kts
13-Apr-16 09:17 33.825349 -116.509120 89 435ft 5kts
13-Apr-16 09:18 33.825284 -116.505938 114 430ft 12kts
13-Apr-16 09:19 33.822226 -116.503028 143 421ft 14kts
13-Apr-16 09:20 33.818890 -116.500084 145 412ft 10kts
13-Apr-16 09:21 33.818527 -116.499183 86 410ft 0kts
13-Apr-16 09:22 33.818527 -116.499183 86 410ft 0kts
13-Apr-16 09:23 33.818527 -116.499183 86 410ft 0kts
13-Apr-16 09:24 33.818527 -116.499183 86 410ft 0kts
13-Apr-16 09:25 33.818537 -116.498972 86 409ft 5kts
13-Apr-16 09:26 33.823980 -116.502592 323 424ft 124kts
13-Apr-16 09:27 33.868850 -116.545065 319 3323ft 266kts
13-Apr-16 09:28 33.935260 -116.564776 32 7001ft 279kts
13-Apr-16 09:29 33.962382 -116.476479 74 10279ft 298kts
13-Apr-16 09:30 33.986101 -116.363813 73 12750ft 371kts
13-Apr-16 09:31 34.012360 -116.242392 74 13025ft 373kts
13-Apr-16 09:32 34.038182 -116.121188 74 13081ft 373kts
13-Apr-16 09:33 34.064415 -115.997089 74 16185ft 391kts
13-Apr-16 09:34 34.091945 -115.866295 74 19544ft 414kts
13-Apr-16 09:35 34.130899 -115.734183 55 22548ft 428kts
13-Apr-16 09:36 34.194300 -115.609574 55 25461ft 446kts
13-Apr-16 09:37 34.260400 -115.479956 54 28405ft 463kts
13-Apr-16 09:38 34.327474 -115.347959 54 29191ft 458kts
13-Apr-16 09:39 34.395645 -115.214225 55 29982ft 482kts
13-Apr-16 09:40 34.464845 -115.077018 54 31117ft 474kts
13-Apr-16 09:41 34.521966 -114.963383 54 31119ft 475kts
13-Apr-16 09:42 34.602032 -114.803459 54 31119ft 475kts
13-Apr-16 09:43 34.658850 -114.689529 54 31119ft 475kts
13-Apr-16 09:44 34.738372 -114.529451 54 31119ft 474kts
13-Apr-16 09:45 34.808311 -114.429228 37 31127ft 465kts
13-Apr-16 09:46 34.904880 -114.325352 36 31110ft 467kts
13-Apr-16 09:47 35.003806 -114.219544 37 31132ft 479kts
13-Apr-16 09:48 35.104267 -114.111267 37 31172ft 486kts
13-Apr-16 09:49 35.205306 -114.001969 37 31192ft 486kts
13-Apr-16 09:50 35.305352 -113.893342 36 31193ft 475kts
13-Apr-16 09:51 35.403034 -113.786975 36 31194ft 469kts
13-Apr-16 09:52 35.500679 -113.680245 36 30287ft 461kts
13-Apr-16 09:53 35.591794 -113.574914 48 27713ft 451kts
13-Apr-16 09:54 35.637152 -113.433404 85 24550ft 446kts
13-Apr-16 09:55 35.642153 -113.286086 83 24192ft 430kts
13-Apr-16 09:56 35.651710 -113.138331 84 21869ft 435kts
13-Apr-16 09:57 35.661055 -112.991091 85 19083ft 431kts
13-Apr-16 09:58 35.669530 -112.854984 85 16342ft 394kts
13-Apr-16 09:59 35.677507 -112.724760 86 13637ft 357kts
13-Apr-16 10:00 35.684561 -112.607616 86 11011ft 326kts
13-Apr-16 10:01 35.690959 -112.499732 86 9348ft 301kts
13-Apr-16 10:02 35.706809 -112.405681 47 9004ft 274kts
13-Apr-16 10:03 35.764509 -112.344679 40 8995ft 269kts
13-Apr-16 10:04 35.818259 -112.288090 40 9000ft 251kts
13-Apr-16 10:05 35.868057 -112.235737 40 8516ft 209kts
13-Apr-16 10:06 35.907314 -112.194430 40 7503ft 177kts
13-Apr-16 10:07 35.944709 -112.155094 40 6576ft 175kts
13-Apr-16 10:08 35.960637 -112.138294 41 6621ft 22kts
13-Apr-16 10:09 35.960647 -112.136399 206 6626ft 7kts
13-Apr-16 10:10 35.958243 -112.138918 220 6619ft 13kts
13-Apr-16 10:11 35.955918 -112.140825 108 6613ft 2kts
13-Apr-16 10:12 35.956236 -112.140110 38 6616ft 0kts
13-Apr-16 10:13 35.956236 -112.140110 38 6616ft 0kts

Navigation Log

Ident Type
Flight plan parsing failed, navigation log unavailable